Time,TemperatureF,DewpointF,PressureIn,WindDirection,WindDirectionDegrees,WindSpeedMPH,WindSpeedGustMPH,Humidity,HourlyPrecipIn,Conditions,Clouds,dailyrainin,SoftwareType,DateUTC
2013-03-16 00:02:00,48.0,-99.9,30.19,West,274,3.0,6.0,-999,-99.99,,,-99.99,,2013-03-16 07:02:00,
2013-03-16 00:12:00,49.0,-99.9,30.19,WNW,302,3.0,4.0,-999,-99.99,,,-99.99,,2013-03-16 07:12:00,
2013-03-16 00:22:00,49.0,-99.9,30.19,WNW,300,2.0,2.0,-999,-99.99,,,-99.99,,2013-03-16 07:22:00,
2013-03-16 00:32:00,48.0,-99.9,30.19,WSW,250,0.0,2.0,-999,-99.99,,,-99.99,,2013-03-16 07:32:00,
2013-03-16 00:42:00,48.0,-99.9,30.19,West,266,1.0,2.0,-999,-99.99,,,-99.99,,2013-03-16 07:42:00,
2013-03-16 00:53:00,48.0,-99.9,30.19,NW,315,1.0,2.0,-999,-99.99,,,-99.99,,2013-03-16 07:53:00,
2013-03-16 01:03:00,49.0,-99.9,30.19,NW,326,3.0,4.0,-999,-99.99,,,-99.99,,2013-03-16 08:03:00,
2013-03-16 01:12:00,49.0,-99.9,30.19,NW,312,1.0,2.0,-999,-99.99,,,-99.99,,2013-03-16 08:12:00,
2013-03-16 01:23:00,49.0,-99.9,30.19,NNW,338,2.0,3.0,-999,-99.99,,,-99.99,,2013-03-16 08:23:00,
2013-03-16 01:33:00,49.0,-99.9,30.19,WNW,300,2.0,3.0,-999,-99.99,,,-99.99,,2013-03-16 08:33:00,
2013-03-16 01:42:00,49.0,-99.9,30.18,East,99,0.0,1.0,-999,-99.99,,,-99.99,,2013-03-16 08:42:00,
2013-03-16 01:52:00,49.0,-99.9,30.18,NNE,26,1.0,2.0,-999,-99.99,,,-99.99,,2013-03-16 08:52:00,
2013-03-16 02:02:00,49.0,-99.9,30.18,East,84,-999.0,1.0,-999,-99.99,,,-99.99,,2013-03-16 09:02:00,
2013-03-16 02:12:00,48.0,-99.9,30.19,North,-999,-999.0,-999.0,-999,-99.99,,,-99.99,,2013-03-16 09:12:00,
2013-03-16 02:22:00,48.0,-99.9,30.19,SSE,152,1.0,1.0,-999,-99.99,,,-99.99,,2013-03-16 09:22:00,
2013-03-16 02:33:00,48.0,-99.9,30.18,SSE,152,-999.0,1.0,-999,-99.99,,,-99.99,,2013-03-16 09:33:00,
2013-03-16 02:43:00,48.0,-99.9,30.18,North,-999,-999.0,-999.0,-999,-99.99,,,-99.99,,2013-03-16 09:43:00,
2013-03-16 02:53:00,48.0,-99.9,30.18,North,-999,-999.0,-999.0,-999,-99.99,,,-99.99,,2013-03-16 09:53:00,
2013-03-16 03:03:00,48.0,-99.9,30.17,ESE,117,1.0,2.0,-999,-99.99,,,-99.99,,2013-03-16 10:03:00,
2013-03-16 03:12:00,48.0,-99.9,30.17,East,101,2.0,3.0,-999,-99.99,,,-99.99,,2013-03-16 10:12:00,
2013-03-16 03:23:00,48.0,-99.9,30.17,ENE,72,3.0,4.0,-999,-99.99,,,-99.99,,2013-03-16 10:23:00,
2013-03-16 03:32:00,48.0,-99.9,30.17,SE,124,2.0,3.0,-999,-99.99,,,-99.99,,2013-03-16 10:32:00,
2013-03-16 03:42:00,47.0,-99.9,30.16,SE,130,4.0,5.0,-999,-99.99,,,-99.99,,2013-03-16 10:42:00,
2013-03-16 03:53:00,47.0,-99.9,30.16,SE,126,2.0,3.0,-999,-99.99,,,-99.99,,2013-03-16 10:53:00,
2013-03-16 04:03:00,48.0,-99.9,30.16,ESE,112,2.0,3.0,-999,-99.99,,,-99.99,,2013-03-16 11:03:00,
2013-03-16 04:12:00,48.0,-99.9,30.16,ESE,122,2.0,3.0,-999,-99.99,,,-99.99,,2013-03-16 11:12:00,
2013-03-16 04:22:00,48.0,-99.9,30.16,SE,137,2.0,3.0,-999,-99.99,,,-99.99,,2013-03-16 11:22:00,
2013-03-16 04:33:00,48.0,-99.9,30.16,SSE,168,2.0,3.0,-999,-99.99,,,-99.99,,2013-03-16 11:33:00,
2013-03-16 04:43:00,48.0,-99.9,30.16,ESE,108,1.0,3.0,-999,-99.99,,,-99.99,,2013-03-16 11:43:00,
2013-03-16 04:53:00,48.0,-99.9,30.15,West,259,3.0,6.0,-999,-99.99,,,-99.99,,2013-03-16 11:53:00,
2013-03-16 05:02:00,48.0,-99.9,30.15,WSW,251,5.0,6.0,-999,-99.99,,,-99.99,,2013-03-16 12:02:00,
2013-03-16 05:12:00,48.0,-99.9,30.15,WSW,247,5.0,9.0,-999,-99.99,,,-99.99,,2013-03-16 12:12:00,
2013-03-16 05:23:00,48.0,-99.9,30.14,NE,46,1.0,3.0,-999,-99.99,,,-99.99,,2013-03-16 12:23:00,
2013-03-16 05:32:00,48.0,-99.9,30.14,East,83,0.0,2.0,-999,-99.99,,,-99.99,,2013-03-16 12:32:00,
2013-03-16 05:43:00,48.0,-99.9,30.14,SSW,199,2.0,4.0,-999,-99.99,,,-99.99,,2013-03-16 12:43:00,
2013-03-16 05:53:00,48.0,-99.9,30.14,East,87,5.0,6.0,-999,-99.99,,,-99.99,,2013-03-16 12:53:00,
2013-03-16 06:02:00,48.0,-99.9,30.14,SE,135,2.0,4.0,-999,-99.99,,,-99.99,,2013-03-16 13:02:00,
2013-03-16 06:12:00,48.0,-99.9,30.13,SSW,210,0.0,2.0,-999,-99.99,,,-99.99,,2013-03-16 13:12:00,
2013-03-16 06:23:00,48.0,-99.9,30.13,East,93,1.0,2.0,-999,-99.99,,,-99.99,,2013-03-16 13:23:00,
2013-03-16 06:32:00,48.0,-99.9,30.13,ESE,103,1.0,3.0,-999,-99.99,,,-99.99,,2013-03-16 13:32:00,
2013-03-16 06:43:00,48.0,-99.9,30.12,East,93,2.0,2.0,-999,-99.99,,,-99.99,,2013-03-16 13:43:00,
2013-03-16 06:53:00,48.0,-99.9,30.13,North,-999,-999.0,-999.0,-999,-99.99,,,-99.99,,2013-03-16 13:53:00,
2013-03-16 07:03:00,47.0,-99.9,30.13,South,188,1.0,2.0,-999,-99.99,,,-99.99,,2013-03-16 14:03:00,
2013-03-16 07:12:00,47.0,-99.9,30.12,East,98,3.0,4.0,-999,-99.99,,,-99.99,,2013-03-16 14:12:00,
2013-03-16 07:22:00,47.0,-99.9,30.12,ESE,110,4.0,5.0,-999,-99.99,,,-99.99,,2013-03-16 14:22:00,
2013-03-16 07:32:00,47.0,-99.9,30.11,ESE,113,4.0,5.0,-999,-99.99,,,-99.99,,2013-03-16 14:32:00,
2013-03-16 07:42:00,47.0,-99.9,30.12,ESE,110,3.0,4.0,-999,-99.99,,,-99.99,,2013-03-16 14:42:00,
2013-03-16 07:53:00,47.0,-99.9,30.11,SE,125,1.0,3.0,-999,-99.99,,,-99.99,,2013-03-16 14:53:00,
2013-03-16 08:03:00,47.0,-99.9,30.11,ESE,107,2.0,3.0,-999,-99.99,,,-99.99,,2013-03-16 15:03:00,
2013-03-16 08:13:00,47.0,-99.9,30.11,ESE,110,2.0,2.0,-999,-99.99,,,-99.99,,2013-03-16 15:13:00,
2013-03-16 08:23:00,47.0,-99.9,30.11,North,355,1.0,4.0,-999,-99.99,,,-99.99,,2013-03-16 15:23:00,
2013-03-16 08:33:00,48.0,-99.9,30.12,NE,50,-999.0,2.0,-999,-99.99,,,-99.99,,2013-03-16 15:33:00,
2013-03-16 08:44:00,48.0,-99.9,30.12,SE,135,0.0,1.0,-999,-99.99,,,-99.99,,2013-03-16 15:44:00,
2013-03-16 08:53:00,47.0,-99.9,30.11,East,93,3.0,5.0,-999,-99.99,,,-99.99,,2013-03-16 15:53:00,
2013-03-16 09:03:00,47.0,-99.9,30.11,SE,128,3.0,5.0,-999,-99.99,,,-99.99,,2013-03-16 16:03:00,
2013-03-16 09:13:00,48.0,-99.9,30.11,SSE,148,6.0,8.0,-999,-99.99,,,-99.99,,2013-03-16 16:13:00,
2013-03-16 09:23:00,47.0,-99.9,30.12,ESE,113,4.0,8.0,-999,-99.99,,,-99.99,,2013-03-16 16:23:00,
2013-03-16 09:33:00,47.0,-99.9,30.12,ESE,110,6.0,9.0,-999,-99.99,,,-99.99,,2013-03-16 16:33:00,
2013-03-16 09:43:00,47.0,-99.9,30.11,ESE,109,7.0,10.0,-999,-99.99,,,-99.99,,2013-03-16 16:43:00,
2013-03-16 09:53:00,47.0,-99.9,30.11,East,100,6.0,8.0,-999,-99.99,,,-99.99,,2013-03-16 16:53:00,
2013-03-16 10:03:00,47.0,-99.9,30.11,ESE,107,5.0,6.0,-999,-99.99,,,-99.99,,2013-03-16 17:03:00,
2013-03-16 10:13:00,48.0,-99.9,30.11,East,95,4.0,8.0,-999,-99.99,,,-99.99,,2013-03-16 17:13:00,
2013-03-16 10:23:00,48.0,-99.9,30.10,ESE,102,2.0,4.0,-999,-99.99,,,-99.99,,2013-03-16 17:23:00,
2013-03-16 10:33:00,48.0,-99.9,30.10,ESE,108,3.0,5.0,-999,-99.99,,,-99.99,,2013-03-16 17:33:00,
2013-03-16 10:43:00,48.0,-99.9,30.10,SE,133,5.0,8.0,-999,-99.99,,,-99.99,,2013-03-16 17:43:00,
2013-03-16 10:53:00,48.0,-99.9,30.10,ESE,116,6.0,9.0,-999,-99.99,,,-99.99,,2013-03-16 17:53:00,
2013-03-16 11:03:00,49.0,-99.9,30.10,SSE,148,6.0,9.0,-999,-99.99,,,-99.99,,2013-03-16 18:03:00,
2013-03-16 11:13:00,49.0,-99.9,30.09,South,169,6.0,7.0,-999,-99.99,,,-99.99,,2013-03-16 18:13:00,
2013-03-16 11:23:00,49.0,-99.9,30.09,SSE,151,6.0,9.0,-999,-99.99,,,-99.99,,2013-03-16 18:23:00,
2013-03-16 11:33:00,49.0,-99.9,30.09,SSE,150,6.0,9.0,-999,-99.99,,,-99.99,,2013-03-16 18:33:00,
2013-03-16 11:43:00,49.0,-99.9,30.09,South,172,9.0,11.0,-999,-99.99,,,-99.99,,2013-03-16 18:43:00,
2013-03-16 11:53:00,49.0,-99.9,30.09,South,170,7.0,11.0,-999,-99.99,,,-99.99,,2013-03-16 18:53:00,
2013-03-16 12:02:00,49.0,-99.9,30.09,SSE,155,6.0,10.0,-999,-99.99,,,-99.99,,2013-03-16 19:02:00,
2013-03-16 12:12:00,49.0,-99.9,30.08,South,181,5.0,10.0,-999,-99.99,,,-99.99,,2013-03-16 19:12:00,
2013-03-16 12:23:00,49.0,-99.9,30.08,SW,219,9.0,16.0,-999,-99.99,,,-99.99,,2013-03-16 19:23:00,
2013-03-16 12:33:00,49.0,-99.9,30.09,SW,223,6.0,11.0,-999,-99.99,,,-99.99,,2013-03-16 19:33:00,
2013-03-16 12:42:00,49.0,-99.9,30.08,SW,236,6.0,17.0,-999,-99.99,,,-99.99,,2013-03-16 19:42:00,
2013-03-16 12:53:00,48.0,-99.9,30.08,WSW,249,10.0,18.0,-999,-99.99,,,-99.99,,2013-03-16 19:53:00,
2013-03-16 13:03:00,48.0,-99.9,30.08,West,271,10.0,15.0,-999,-99.99,,,-99.99,,2013-03-16 20:03:00,
2013-03-16 13:13:00,49.0,-99.9,30.07,West,273,8.0,13.0,-999,-99.99,,,-99.99,,2013-03-16 20:13:00,
2013-03-16 13:22:00,49.0,-99.9,30.07,West,267,6.0,11.0,-999,-99.99,,,-99.99,,2013-03-16 20:22:00,
2013-03-16 13:33:00,49.0,-99.9,30.07,WSW,248,10.0,15.0,-999,-99.99,,,-99.99,,2013-03-16 20:33:00,
2013-03-16 13:43:00,49.0,-99.9,30.06,WSW,250,7.0,12.0,-999,-99.99,,,-99.99,,2013-03-16 20:43:00,
2013-03-16 13:53:00,49.0,-99.9,30.06,WSW,239,10.0,15.0,-999,-99.99,,,-99.99,,2013-03-16 20:53:00,
2013-03-16 14:02:00,49.0,-99.9,30.06,West,267,11.0,18.0,-999,-99.99,,,-99.99,,2013-03-16 21:02:00,
2013-03-16 14:12:00,49.0,-99.9,30.06,WSW,258,12.0,17.0,-999,-99.99,,,-99.99,,2013-03-16 21:12:00,
2013-03-16 14:23:00,49.0,-99.9,30.05,West,268,11.0,15.0,-999,-99.99,,,-99.99,,2013-03-16 21:23:00,
2013-03-16 14:33:00,49.0,-99.9,30.04,WSW,250,12.0,18.0,-999,-99.99,,,-99.99,,2013-03-16 21:33:00,
2013-03-16 14:43:00,49.0,-99.9,30.04,West,260,11.0,17.0,-999,-99.99,,,-99.99,,2013-03-16 21:43:00,
2013-03-16 14:53:00,49.0,-99.9,30.04,West,274,9.0,15.0,-999,-99.99,,,-99.99,,2013-03-16 21:53:00,
2013-03-16 15:03:00,49.0,-99.9,30.03,NW,311,8.0,14.0,-999,-99.99,,,-99.99,,2013-03-16 22:03:00,
2013-03-16 15:13:00,50.0,-99.9,30.03,WNW,289,8.0,11.0,-999,-99.99,,,-99.99,,2013-03-16 22:13:00,
2013-03-16 15:23:00,49.0,-99.9,30.02,NW,322,5.0,8.0,-999,-99.99,,,-99.99,,2013-03-16 22:23:00,
2013-03-16 15:33:00,49.0,-99.9,30.02,WNW,299,5.0,6.0,-999,-99.99,,,-99.99,,2013-03-16 22:33:00,
2013-03-16 15:43:00,48.0,-99.9,30.02,West,260,12.0,15.0,-999,-99.99,,,-99.99,,2013-03-16 22:43:00,
2013-03-16 15:53:00,45.0,-99.9,30.04,WNW,297,18.0,28.0,-999,-99.99,,,-99.99,,2013-03-16 22:53:00,
2013-03-16 16:03:00,45.0,-99.9,30.04,WNW,288,16.0,23.0,-999,-99.99,,,-99.99,,2013-03-16 23:03:00,
2013-03-16 16:13:00,44.0,-99.9,30.04,WNW,289,15.0,24.0,-999,-99.99,,,-99.99,,2013-03-16 23:13:00,
2013-03-16 16:23:00,44.0,-99.9,30.05,WNW,289,15.0,23.0,-999,-99.99,,,-99.99,,2013-03-16 23:23:00,
2013-03-16 16:33:00,44.0,-99.9,30.04,WNW,285,13.0,19.0,-999,-99.99,,,-99.99,,2013-03-16 23:33:00,
2013-03-16 16:43:00,44.0,-99.9,30.05,WNW,284,9.0,13.0,-999,-99.99,,,-99.99,,2013-03-16 23:43:00,
2013-03-16 16:53:00,44.0,-99.9,30.05,West,265,13.0,16.0,-999,-99.99,,,-99.99,,2013-03-16 23:53:00,
2013-03-16 17:02:00,44.0,-99.9,30.04,West,266,10.0,13.0,-999,-99.99,,,-99.99,,2013-03-17 00:02:00,
2013-03-16 17:13:00,44.0,-99.9,30.04,WSW,250,4.0,10.0,-999,-99.99,,,-99.99,,2013-03-17 00:13:00,
2013-03-16 17:23:00,44.0,-99.9,30.04,West,263,6.0,11.0,-999,-99.99,,,-99.99,,2013-03-17 00:23:00,
2013-03-16 17:33:00,44.0,-99.9,30.03,WNW,292,5.0,9.0,-999,-99.99,,,-99.99,,2013-03-17 00:33:00,
2013-03-16 17:43:00,45.0,-99.9,30.04,WSW,242,4.0,6.0,-999,-99.99,,,-99.99,,2013-03-17 00:43:00,
2013-03-16 17:53:00,45.0,-99.9,30.04,SW,236,8.0,12.0,-999,-99.99,,,-99.99,,2013-03-17 00:53:00,
2013-03-16 18:03:00,45.0,-99.9,30.04,West,270,6.0,10.0,-999,-99.99,,,-99.99,,2013-03-17 01:03:00,
2013-03-16 18:12:00,45.0,-99.9,30.03,WNW,296,4.0,9.0,-999,-99.99,,,-99.99,,2013-03-17 01:12:00,
2013-03-16 18:23:00,46.0,-99.9,30.03,WNW,290,11.0,16.0,-999,-99.99,,,-99.99,,2013-03-17 01:23:00,
2013-03-16 18:33:00,46.0,-99.9,30.03,WNW,289,13.0,19.0,-999,-99.99,,,-99.99,,2013-03-17 01:33:00,
2013-03-16 18:43:00,46.0,-99.9,30.03,West,274,14.0,17.0,-999,-99.99,,,-99.99,,2013-03-17 01:43:00,
2013-03-16 18:53:00,45.0,-99.9,30.03,WNW,291,12.0,18.0,-999,-99.99,,,-99.99,,2013-03-17 01:53:00,
2013-03-16 19:03:00,45.0,-99.9,30.04,West,279,12.0,17.0,-999,-99.99,,,-99.99,,2013-03-17 02:03:00,
2013-03-16 19:13:00,45.0,-99.9,30.04,WNW,283,11.0,19.0,-999,-99.99,,,-99.99,,2013-03-17 02:13:00,
2013-03-16 19:23:00,45.0,-99.9,30.04,WNW,289,10.0,13.0,-999,-99.99,,,-99.99,,2013-03-17 02:23:00,
2013-03-16 19:33:00,45.0,-99.9,30.04,WNW,285,7.0,10.0,-999,-99.99,,,-99.99,,2013-03-17 02:33:00,
2013-03-16 19:43:00,44.0,-99.9,30.04,WSW,245,4.0,8.0,-999,-99.99,,,-99.99,,2013-03-17 02:43:00,
2013-03-16 19:53:00,44.0,-99.9,30.04,South,185,2.0,4.0,-999,-99.99,,,-99.99,,2013-03-17 02:53:00,
2013-03-16 20:03:00,44.0,-99.9,30.04,SW,222,5.0,6.0,-999,-99.99,,,-99.99,,2013-03-17 03:03:00,
2013-03-16 20:12:00,43.0,-99.9,30.04,SW,222,6.0,7.0,-999,-99.99,,,-99.99,,2013-03-17 03:12:00,
2013-03-16 20:23:00,43.0,-99.9,30.04,WSW,257,6.0,9.0,-999,-99.99,,,-99.99,,2013-03-17 03:23:00,
2013-03-16 20:34:00,43.0,-99.9,30.05,WSW,252,7.0,9.0,-999,-99.99,,,-99.99,,2013-03-17 03:34:00,
2013-03-16 20:43:00,41.0,-99.9,30.06,West,281,10.0,18.0,-999,-99.99,,,-99.99,,2013-03-17 03:43:00,
2013-03-16 20:53:00,40.0,-99.9,30.06,WSW,250,9.0,12.0,-999,-99.99,,,-99.99,,2013-03-17 03:53:00,
2013-03-16 21:03:00,40.0,-99.9,30.06,WSW,248,5.0,10.0,-999,-99.99,,,-99.99,,2013-03-17 04:03:00,
2013-03-16 21:13:00,41.0,-99.9,30.06,WSW,246,6.0,11.0,-999,-99.99,,,-99.99,,2013-03-17 04:13:00,
2013-03-16 21:23:00,41.0,-99.9,30.07,West,262,6.0,8.0,-999,-99.99,,,-99.99,,2013-03-17 04:23:00,
2013-03-16 21:33:00,41.0,-99.9,30.07,WSW,240,5.0,10.0,-999,-99.99,,,-99.99,,2013-03-17 04:33:00,
2013-03-16 21:43:00,41.0,-99.9,30.08,SSW,208,4.0,7.0,-999,-99.99,,,-99.99,,2013-03-17 04:43:00,
2013-03-16 21:53:00,41.0,-99.9,30.08,SSW,209,4.0,6.0,-999,-99.99,,,-99.99,,2013-03-17 04:53:00,
2013-03-16 22:03:00,41.0,-99.9,30.08,SSW,212,4.0,8.0,-999,-99.99,,,-99.99,,2013-03-17 05:03:00,
2013-03-16 22:12:00,41.0,-99.9,30.09,SSW,197,6.0,7.0,-999,-99.99,,,-99.99,,2013-03-17 05:12:00,
2013-03-16 22:22:00,42.0,-99.9,30.08,SW,216,6.0,15.0,-999,-99.99,,,-99.99,,2013-03-17 05:22:00,
2013-03-16 22:32:00,42.0,-99.9,30.09,SSW,200,5.0,9.0,-999,-99.99,,,-99.99,,2013-03-17 05:32:00,
2013-03-16 22:43:00,41.0,-99.9,30.09,South,182,5.0,6.0,-999,-99.99,,,-99.99,,2013-03-17 05:43:00,
2013-03-16 22:52:00,41.0,-99.9,30.09,SSW,197,8.0,10.0,-999,-99.99,,,-99.99,,2013-03-17 05:52:00,
2013-03-16 23:02:00,41.0,-99.9,30.10,SW,220,12.0,16.0,-999,-99.99,,,-99.99,,2013-03-17 06:02:00,
2013-03-16 23:12:00,40.0,-99.9,30.10,SW,227,8.0,15.0,-999,-99.99,,,-99.99,,2013-03-17 06:12:00,
2013-03-16 23:22:00,40.0,-99.9,30.10,SSW,207,4.0,9.0,-999,-99.99,,,-99.99,,2013-03-17 06:22:00,
2013-03-16 23:32:00,40.0,-99.9,30.10,SSW,193,2.0,4.0,-999,-99.99,,,-99.99,,2013-03-17 06:32:00,
2013-03-16 23:42:00,40.0,-99.9,30.11,SW,228,6.0,9.0,-999,-99.99,,,-99.99,,2013-03-17 06:42:00,
2013-03-16 23:53:00,40.0,-99.9,30.11,SW,218,3.0,6.0,-999,-99.99,,,-99.99,,2013-03-17 06:53:00,